Time;durP1;ratioP1;P1;durP2;ratioP2;P2;SDS_P1;SDS_P2;PMS_P1;PMS_P2;Temp;Humidity;BMP_temperature;BMP_pressure;BME280_temperature;BME280_humidity;BME280_pressure;Samples;Min_cycle;Max_cycle;Signal;HPM_P1;HPM_P2
2021/07/27 00:02:10;;;;;;;;;16.75;13.25;;;;;22.37;57.05;100976.38;5017797;28;45392;-82
2021/07/27 00:04:35;;;;;;;;;14.75;12.00;;;;;22.39;56.80;100970.22;5018132;28;45364;-82
2021/07/27 00:07:01;;;;;;;;;13.75;13.75;;;;;22.39;56.61;100969.34;5016199;28;45343;-82
2021/07/27 00:09:27;;;;;;;;;17.50;15.00;;;;;22.37;56.40;100964.06;5018030;28;46023;-83
2021/07/27 00:11:52;;;;;;;;;18.00;16.50;;;;;22.35;56.58;100968.44;5017567;28;45441;-83
2021/07/27 00:14:18;;;;;;;;;14.00;14.00;;;;;22.31;56.36;100971.09;5018055;28;45381;-83
2021/07/27 00:16:44;;;;;;;;;15.25;13.75;;;;;22.31;56.09;100957.91;5018426;28;45534;-83
2021/07/27 00:19:09;;;;;;;;;20.75;17.00;;;;;22.29;56.58;100967.59;5017476;28;45236;-83
2021/07/27 00:21:35;;;;;;;;;12.00;12.00;;;;;22.28;56.05;100964.06;5017766;28;45198;-82
2021/07/27 00:24:00;;;;;;;;;13.50;13.00;;;;;22.27;56.69;100965.84;5017761;28;45237;-83
2021/07/27 00:26:26;;;;;;;;;14.00;13.50;;;;;22.27;56.48;100962.31;5018096;28;45488;-82
2021/07/27 00:28:52;;;;;;;;;21.75;16.00;;;;;22.25;56.44;100957.03;5017463;28;46396;-83
2021/07/27 00:31:18;;;;;;;;;16.25;15.00;;;;;22.24;56.67;100950.00;5032991;28;45347;-82
2021/07/27 00:33:46;;;;;;;;;20.25;15.00;;;;;22.25;56.62;100956.16;5017651;28;45461;-82
2021/07/27 00:36:12;;;;;;;;;14.00;11.25;;;;;22.25;56.37;100951.78;5017083;28;45366;-83
2021/07/27 00:38:37;;;;;;;;;15.25;14.00;;;;;22.25;56.40;100956.16;5017263;28;45395;-82
2021/07/27 00:41:03;;;;;;;;;13.75;13.25;;;;;22.24;56.57;100954.44;5017163;28;45233;-83
2021/07/27 00:43:29;;;;;;;;;14.50;13.50;;;;;22.22;56.01;100951.78;5017479;28;45480;-82
2021/07/27 00:45:54;;;;;;;;;13.50;12.50;;;;;22.20;56.45;100950.88;5017224;28;45367;-82
2021/07/27 00:48:20;;;;;;;;;18.00;15.00;;;;;22.19;56.38;100950.91;5017142;28;45343;-82
2021/07/27 00:50:46;;;;;;;;;17.25;15.50;;;;;22.19;56.50;100951.75;5017614;28;45298;-83
2021/07/27 00:53:13;;;;;;;;;16.00;12.50;;;;;22.20;56.53;100950.88;5017370;28;45748;-80
2021/07/27 00:55:39;;;;;;;;;15.00;15.00;;;;;22.21;56.75;100954.41;5017440;28;45431;-80
2021/07/27 00:58:05;;;;;;;;;15.25;13.00;;;;;22.20;56.67;100942.09;5016887;28;45437;-80
2021/07/27 01:00:31;;;;;;;;;13.50;13.50;;;;;22.19;56.92;100951.75;5017132;28;45296;-82
2021/07/27 01:02:57;;;;;;;;;15.75;13.00;;;;;22.18;56.33;100950.03;5017076;28;45419;-82
2021/07/27 01:05:26;;;;;;;;;13.75;12.50;;;;;22.16;56.36;100946.50;5017419;28;45277;-82
2021/07/27 01:07:51;;;;;;;;;14.25;13.00;;;;;22.17;56.62;100955.28;5016806;28;46290;-82
2021/07/27 01:10:17;;;;;;;;;14.75;13.00;;;;;22.12;56.45;100952.66;5017117;28;45440;-83
2021/07/27 01:12:47;;;;;;;;;14.00;12.75;;;;;22.11;56.76;100950.91;5017484;28;45399;-82
2021/07/27 01:15:13;;;;;;;;;13.75;10.75;;;;;22.10;56.63;100954.41;5017643;28;45611;-82
2021/07/27 01:17:39;;;;;;;;;13.50;13.00;;;;;22.05;56.84;100953.56;5016664;28;45811;-82
2021/07/27 01:39:34;;;;;;;;;12.50;12.25;;;;;21.85;57.29;100930.72;5016315;28;45818;-82
2021/07/27 01:42:11;;;;;;;;;12.75;11.50;;;;;21.87;57.74;100933.34;5016245;28;45432;-82
2021/07/27 01:44:44;;;;;;;;;12.75;12.25;;;;;21.86;57.64;100940.38;5016835;28;45324;-82
2021/07/27 01:47:20;;;;;;;;;19.25;13.25;;;;;21.84;57.49;100935.97;5015933;28;45342;-82
2021/07/27 01:49:47;;;;;;;;;13.50;12.00;;;;;21.82;57.42;100937.72;5016716;28;45318;-82
2021/07/27 01:52:14;;;;;;;;;13.00;13.00;;;;;21.80;57.25;100928.09;5016832;28;45761;-82
2021/07/27 01:54:47;;;;;;;;;13.50;13.25;;;;;21.81;57.87;100934.22;5015193;28;45381;-82
2021/07/27 01:57:14;;;;;;;;;14.00;12.25;;;;;21.78;57.76;100929.84;5016659;28;45570;-82
2021/07/27 01:59:46;;;;;;;;;10.00;10.00;;;;;21.78;57.88;100929.84;5016187;28;45310;-82
2021/07/27 02:02:12;;;;;;;;;12.50;12.25;;;;;21.77;57.72;100927.19;5015915;28;45802;-82
2021/07/27 02:04:37;;;;;;;;;12.00;11.25;;;;;21.73;58.10;100928.94;5016534;28;45442;-80
2021/07/27 02:07:03;;;;;;;;;10.50;10.00;;;;;21.70;58.34;100918.41;5016252;28;45254;-82
2021/07/27 02:09:31;;;;;;;;;10.00;10.00;;;;;21.68;58.24;100920.16;5014848;28;46944;-82
2021/07/27 02:12:00;;;;;;;;;15.25;11.25;;;;;21.66;58.07;100924.56;5015938;28;45861;-82
2021/07/27 02:15:03;;;;;;;;;16.25;11.50;;;;;21.65;58.46;100923.66;5016297;28;45359;-82
2021/07/27 02:17:11;;;;;;;;;14.00;11.50;;;;;21.67;58.01;100922.78;5015409;28;45592;-82
2021/07/27 02:19:37;;;;;;;;;13.25;13.25;;;;;21.65;57.91;100917.53;5016196;28;45858;-82
2021/07/27 02:22:04;;;;;;;;;14.25;12.50;;;;;21.65;58.68;100920.16;5014407;28;45332;-82
2021/07/27 02:24:29;;;;;;;;;12.75;11.00;;;;;21.64;58.33;100929.84;5014401;28;45296;-82
2021/07/27 02:26:55;;;;;;;;;13.50;11.25;;;;;21.65;58.15;100920.16;5014684;28;45246;-82
2021/07/27 02:29:21;;;;;;;;;12.50;12.25;;;;;21.64;58.34;100924.56;5015445;28;46153;-82
2021/07/27 02:31:47;;;;;;;;;14.00;13.75;;;;;21.61;58.78;100916.66;5014856;28;45271;-82
2021/07/27 02:34:12;;;;;;;;;13.50;10.50;;;;;21.64;58.31;100921.94;5016158;28;45422;-82
2021/07/27 02:36:38;;;;;;;;;16.50;12.25;;;;;21.64;58.43;100914.03;5014785;28;45443;-82
2021/07/27 02:39:06;;;;;;;;;14.75;14.75;;;;;21.67;58.26;100915.78;5015432;28;45403;-82
2021/07/27 02:41:32;;;;;;;;;18.00;13.00;;;;;21.67;58.96;100912.25;5014412;28;45838;-82
2021/07/27 02:43:58;;;;;;;;;11.00;11.00;;;;;21.66;58.69;100906.09;5015365;28;45291;-81
2021/07/27 02:46:24;;;;;;;;;14.50;13.25;;;;;21.64;58.82;100892.94;5014848;28;45585;-82
2021/07/27 02:48:50;;;;;;;;;13.50;11.75;;;;;21.69;58.62;100897.31;5015506;28;45551;-82
2021/07/27 02:51:15;;;;;;;;;14.75;12.75;;;;;21.69;58.62;100907.84;5014770;28;45461;-82
2021/07/27 02:53:41;;;;;;;;;15.00;12.75;;;;;21.67;58.69;100896.44;5014640;28;45255;-82
2021/07/27 02:56:06;;;;;;;;;12.50;11.25;;;;;21.70;58.40;100904.34;5014285;28;46054;-82
2021/07/27 02:58:33;;;;;;;;;12.50;12.50;;;;;21.69;58.74;100906.13;5015804;28;45856;-82
2021/07/27 03:01:00;;;;;;;;;15.25;14.50;;;;;21.68;58.42;100904.34;5018905;28;45859;-82
2021/07/27 03:03:25;;;;;;;;;10.50;10.50;;;;;21.69;58.87;100900.84;5019138;28;45390;-82
2021/07/27 03:05:59;;;;;;;;;14.00;13.00;;;;;21.71;58.65;100903.47;5019284;28;45590;-82
2021/07/27 03:08:45;;;;;;;;;13.00;13.00;;;;;21.70;58.50;100905.25;5018310;28;46261;-82
2021/07/27 03:11:10;;;;;;;;;14.50;13.25;;;;;21.68;58.66;100899.09;5018253;28;45328;-82
2021/07/27 03:13:36;;;;;;;;;14.00;12.00;;;;;21.70;58.87;100896.44;5018949;28;45355;-83
2021/07/27 03:16:01;;;;;;;;;13.00;12.75;;;;;21.71;58.82;100892.94;5018086;28;45552;-82
2021/07/27 03:18:27;;;;;;;;;15.75;12.25;;;;;21.71;58.96;100890.28;5018571;28;45383;-82
2021/07/27 03:20:52;;;;;;;;;10.50;10.50;;;;;21.69;58.66;100878.88;5018564;28;45236;-82
2021/07/27 03:23:24;;;;;;;;;11.50;10.50;;;;;21.71;58.81;100875.34;5018782;28;45215;-83
2021/07/27 03:25:49;;;;;;;;;16.25;13.50;;;;;21.68;58.79;100875.38;5017506;28;45656;-82
2021/07/27 03:28:17;;;;;;;;;12.25;12.00;;;;;21.68;58.30;100874.47;5017594;28;45734;-82
2021/07/27 03:30:43;;;;;;;;;15.75;13.25;;;;;21.64;58.49;100868.34;5019121;28;45664;-83
2021/07/27 03:33:08;;;;;;;;;11.75;10.75;;;;;21.67;58.63;100867.44;5018580;28;45235;-83
2021/07/27 03:35:34;;;;;;;;;15.50;10.00;;;;;21.64;58.78;100860.44;5018869;28;45509;-82
2021/07/27 03:38:03;;;;;;;;;13.25;12.75;;;;;21.61;58.29;100863.94;5018207;28;45439;-82
2021/07/27 03:40:28;;;;;;;;;14.25;13.50;;;;;21.60;58.12;100856.03;5018524;28;45897;-83
2021/07/27 03:42:54;;;;;;;;;13.00;12.25;;;;;21.59;58.40;100851.66;5018330;28;45375;-83
2021/07/27 03:45:19;;;;;;;;;14.75;12.75;;;;;21.59;58.48;100854.31;5017450;28;45483;-82
2021/07/27 03:47:45;;;;;;;;;16.75;12.75;;;;;21.57;58.56;100856.00;5017066;28;46788;-82
2021/07/27 03:50:11;;;;;;;;;14.50;12.75;;;;;21.56;58.88;100860.38;5018141;28;45318;-82
2021/07/27 03:52:37;;;;;;;;;12.50;10.25;;;;;21.61;58.68;100861.31;5017175;28;45371;-82
2021/07/27 03:55:06;;;;;;;;;15.25;12.25;;;;;21.62;58.72;100868.34;5018460;28;45314;-82
2021/07/27 03:57:31;;;;;;;;;11.25;11.00;;;;;21.67;58.24;100862.19;5018017;28;47741;-82
2021/07/27 03:59:57;;;;;;;;;11.00;10.25;;;;;21.69;58.43;100858.69;5017925;28;45448;-81
2021/07/27 04:02:26;;;;;;;;;12.75;12.75;;;;;21.69;58.44;100857.78;5018255;28;45300;-83
2021/07/27 04:04:52;;;;;;;;;14.00;11.25;;;;;21.70;58.39;100862.19;5018152;28;45459;-83
2021/07/27 04:07:18;;;;;;;;;16.75;13.75;;;;;21.70;58.56;100862.19;5017728;28;46128;-83
2021/07/27 04:09:44;;;;;;;;;11.25;11.25;;;;;21.70;58.54;100859.56;5018007;28;45334;-82
2021/07/27 04:12:09;;;;;;;;;12.75;12.00;;;;;21.67;58.60;100856.91;5017094;28;45351;-82
2021/07/27 04:14:35;;;;;;;;;15.25;13.25;;;;;21.65;58.38;100865.69;5018072;28;45648;-82
2021/07/27 04:17:01;;;;;;;;;11.50;10.25;;;;;21.63;58.40;100849.03;5017223;28;45393;-83
2021/07/27 04:19:27;;;;;;;;;13.50;12.50;;;;;21.62;58.87;100851.63;5016555;28;45420;-83
2021/07/27 04:21:52;;;;;;;;;13.50;11.25;;;;;21.61;58.38;100860.41;5017630;28;45399;-83
2021/07/27 04:24:18;;;;;;;;;15.50;13.75;;;;;21.60;58.51;100869.19;5018114;28;45307;-83
2021/07/27 04:26:44;;;;;;;;;15.00;11.25;;;;;21.55;58.42;100868.31;5017808;28;45418;-82
2021/07/27 04:29:09;;;;;;;;;12.50;9.50;;;;;21.51;59.38;100880.59;5017492;28;45368;-83
2021/07/27 04:31:35;;;;;;;;;11.00;11.00;;;;;21.47;58.72;100877.09;5017123;28;45363;-83
2021/07/27 04:34:00;;;;;;;;;14.00;12.75;;;;;21.46;58.88;100877.97;5017566;28;45553;-83
2021/07/27 04:36:26;;;;;;;;;14.00;12.25;;;;;21.46;59.41;100883.25;5017569;28;45990;-83
2021/07/27 04:38:51;;;;;;;;;14.50;10.75;;;;;21.44;59.13;100881.47;5016799;28;45486;-82
2021/07/27 04:41:17;;;;;;;;;11.00;10.00;;;;;21.42;59.59;100881.47;5017559;28;45396;-83
2021/07/27 04:43:43;;;;;;;;;15.25;12.00;;;;;21.43;59.59;100872.69;5018091;28;45378;-82
2021/07/27 04:46:09;;;;;;;;;14.50;12.00;;;;;21.43;59.12;100867.41;5017070;28;46145;-82
2021/07/27 04:48:37;;;;;;;;;11.75;10.75;;;;;21.45;59.22;100852.50;5015241;28;45686;-81
2021/07/27 04:51:02;;;;;;;;;12.00;10.75;;;;;21.44;59.44;100840.19;5017052;28;45498;-84
2021/07/27 04:53:30;;;;;;;;;17.25;15.00;;;;;21.46;59.46;100846.34;5017464;28;45475;-83
2021/07/27 04:56:00;;;;;;;;;12.75;11.00;;;;;21.49;58.86;100848.09;5016659;28;45422;-83
2021/07/27 04:58:26;;;;;;;;;11.25;9.25;;;;;21.48;59.52;100852.50;5016550;28;45689;-83
2021/07/27 05:00:52;;;;;;;;;15.75;14.75;;;;;21.49;59.51;100875.31;5017084;28;45346;-81
2021/07/27 05:03:17;;;;;;;;;13.00;13.00;;;;;21.50;59.08;100881.47;5017473;28;45437;-81
2021/07/27 05:05:43;;;;;;;;;14.00;13.25;;;;;21.49;58.85;100866.53;5017188;28;45830;-82
2021/07/27 05:08:08;;;;;;;;;12.25;10.50;;;;;21.47;59.57;100860.41;5016418;28;45508;-82
2021/07/27 05:10:34;;;;;;;;;18.00;14.50;;;;;21.48;59.48;100846.34;5016774;28;45592;-81
2021/07/27 05:13:00;;;;;;;;;18.75;15.25;;;;;21.48;59.24;100848.97;5016960;28;45509;-81
2021/07/27 05:15:25;;;;;;;;;14.25;11.25;;;;;21.50;59.32;100853.38;5016745;28;45919;-81
2021/07/27 05:18:01;;;;;;;;;11.00;9.75;;;;;21.53;59.56;100868.31;5014737;28;45473;-82
2021/07/27 05:20:27;;;;;;;;;13.00;13.00;;;;;21.52;59.57;100869.19;5017019;28;45452;-82
2021/07/27 05:22:54;;;;;;;;;14.75;13.25;;;;;21.54;59.33;100871.81;5016743;28;45593;-81
2021/07/27 05:25:19;;;;;;;;;9.50;8.50;;;;;21.54;58.70;100864.81;5016791;28;46417;-81
2021/07/27 05:27:47;;;;;;;;;13.50;10.25;;;;;21.48;59.17;100868.31;5016571;28;45347;-81
2021/07/27 05:30:14;;;;;;;;;10.75;10.25;;;;;21.44;59.61;100873.56;5016714;28;46048;-82
2021/07/27 05:32:40;;;;;;;;;11.75;10.75;;;;;21.38;59.58;100879.69;5016805;28;45445;-81
2021/07/27 05:35:07;;;;;;;;;13.50;13.00;;;;;21.37;59.30;100883.22;5016038;28;46086;-82
2021/07/27 05:37:33;;;;;;;;;14.50;12.25;;;;;21.31;59.30;100870.03;5015796;28;45424;-81
2021/07/27 05:39:59;;;;;;;;;16.00;14.25;;;;;21.27;59.00;100874.44;5016145;28;45467;-81
2021/07/27 05:42:25;;;;;;;;;12.50;12.50;;;;;21.23;59.60;100874.41;5010773;28;45758;-81
2021/07/27 05:44:50;;;;;;;;;11.50;11.25;;;;;21.18;59.70;100883.19;5004389;28;46078;-82
2021/07/27 05:47:16;;;;;;;;;13.00;12.00;;;;;21.18;59.43;100879.69;5008545;28;45371;-82
2021/07/27 05:49:41;;;;;;;;;16.75;11.75;;;;;21.17;59.39;100896.34;5005334;28;45468;-82
2021/07/27 05:52:11;;;;;;;;;14.50;13.00;;;;;21.16;59.90;100894.59;5011205;28;45399;-82
2021/07/27 05:54:38;;;;;;;;;15.75;13.50;;;;;21.15;59.45;100900.72;5010382;28;45473;-81
2021/07/27 05:57:04;;;;;;;;;15.75;12.25;;;;;21.13;59.35;100898.09;5005497;28;45705;-81
2021/07/27 05:59:29;;;;;;;;;13.50;11.25;;;;;21.11;59.67;100906.88;5007951;28;45225;-81
2021/07/27 06:01:55;;;;;;;;;18.25;13.50;;;;;21.08;59.90;100906.88;5006020;28;45490;-81
2021/07/27 06:04:21;;;;;;;;;17.25;13.00;;;;;21.07;59.83;100911.22;5005592;28;45636;-81
2021/07/27 06:06:47;;;;;;;;;14.25;11.50;;;;;21.08;59.80;100901.59;5015372;28;45398;-81
2021/07/27 06:09:14;;;;;;;;;11.50;11.50;;;;;;;;5008915;28;45372;-82
2021/07/27 06:11:40;;;;;;;;;15.50;13.00;;;;;21.08;59.79;100912.13;5006612;28;45896;-82
2021/07/27 06:14:09;;;;;;;;;13.25;11.75;;;;;21.09;60.01;100913.88;5006130;28;46590;-82
2021/07/27 06:16:39;;;;;;;;;13.00;13.00;;;;;21.10;60.04;100932.31;5010716;28;45807;-82
2021/07/27 06:19:05;;;;;;;;;17.00;14.75;;;;;21.05;60.05;100927.91;5015805;28;45969;-82
2021/07/27 06:21:31;;;;;;;;;15.25;14.50;;;;;21.04;59.80;100927.03;5016092;28;45333;-81
2021/07/27 06:23:57;;;;;;;;;16.50;15.25;;;;;21.01;60.24;100921.75;5017614;28;45478;-88
2021/07/27 06:26:23;;;;;;;;;16.75;13.25;;;;;20.99;59.48;100905.06;5016030;28;45365;-84
2021/07/27 06:28:48;;;;;;;;;12.50;11.75;;;;;20.97;59.71;100901.53;5017600;28;45451;-82
2021/07/27 06:31:14;;;;;;;;;14.50;13.00;;;;;20.98;59.87;100906.84;5015585;28;45251;-82
2021/07/27 06:33:41;;;;;;;;;12.00;11.75;;;;;20.96;59.62;100912.94;5014763;28;45394;-87
2021/07/27 06:36:07;;;;;;;;;12.50;12.50;;;;;20.98;59.86;100911.22;5020916;28;45240;-96
2021/07/27 06:38:33;;;;;;;;;16.50;12.00;;;;;21.00;60.02;100920.84;5016156;28;45455;-83
2021/07/27 06:40:59;;;;;;;;;15.00;13.00;;;;;21.01;59.59;100924.38;5014247;28;45575;-83
2021/07/27 06:43:25;;;;;;;;;13.25;12.75;;;;;21.01;60.29;100924.38;5020606;28;45921;-82
2021/07/27 06:45:55;;;;;;;;;17.00;13.00;;;;;21.05;60.23;100936.69;5014392;28;45485;-84
2021/07/27 06:48:24;;;;;;;;;15.50;14.00;;;;;;;;5007208;28;45335;-82
2021/07/27 06:50:51;;;;;;;;;14.25;14.00;;;;;21.02;59.64;100942.81;5011941;28;45522;-81
2021/07/27 06:53:17;;;;;;;;;15.00;14.00;;;;;21.01;59.58;100919.13;4997809;28;45679;-80
2021/07/27 06:55:43;;;;;;;;;11.50;11.50;;;;;21.05;59.69;100933.16;5015861;28;45667;-80
2021/07/27 06:58:09;;;;;;;;;14.75;13.25;;;;;21.08;59.75;100946.34;5015862;28;45444;-80
2021/07/27 07:00:34;;;;;;;;;13.00;13.00;;;;;21.10;59.60;100941.97;5007273;28;45442;-83
2021/07/27 07:03:01;;;;;;;;;16.00;14.25;;;;;21.11;59.40;100939.34;5017049;28;45619;-79
2021/07/27 07:05:26;;;;;;;;;12.25;12.25;;;;;21.11;59.28;100944.59;5000284;28;45325;-85
2021/07/27 07:07:52;;;;;;;;;14.75;14.00;;;;;21.16;59.04;100934.09;5006918;28;45244;-86
2021/07/27 07:10:17;;;;;;;;;14.00;14.00;;;;;21.17;59.01;100941.09;5013479;28;45858;-83
2021/07/27 07:12:43;;;;;;;;;12.75;10.75;;;;;21.19;58.73;100928.84;5018646;28;46161;-85
2021/07/27 07:15:09;;;;;;;;;15.75;11.75;;;;;21.20;58.31;100922.69;5002845;28;45396;-84
2021/07/27 07:17:35;;;;;;;;;12.25;11.00;;;;;21.24;58.88;100936.75;4997216;28;45758;-84
2021/07/27 07:20:01;;;;;;;;;13.00;12.50;;;;;21.28;58.30;100938.50;4998642;28;45661;-83
2021/07/27 07:22:29;;;;;;;;;11.25;10.25;;;;;21.29;57.93;100948.16;4999329;28;45525;-85
2021/07/27 07:24:56;;;;;;;;;14.50;12.00;;;;;21.30;58.05;100945.53;5009402;28;45295;-82
2021/07/27 07:27:22;;;;;;;;;11.00;11.00;;;;;21.38;57.47;100952.56;5008175;28;45367;-81
2021/07/27 07:29:47;;;;;;;;;15.50;13.75;;;;;21.37;58.32;100967.50;5016479;28;45622;-81
2021/07/27 07:32:13;;;;;;;;;15.00;12.50;;;;;21.37;58.15;100954.34;5018176;28;46241;-81
2021/07/27 07:34:39;;;;;;;;;17.50;14.75;;;;;21.38;58.06;100950.81;5015911;28;45514;-82
2021/07/27 07:37:06;;;;;;;;;19.00;15.50;;;;;21.41;57.39;100942.91;5018268;28;45941;-82
2021/07/27 07:39:33;;;;;;;;;14.50;12.50;;;;;21.49;57.94;100937.66;5013242;28;45487;-85
2021/07/27 07:41:59;;;;;;;;;15.25;12.75;;;;;21.57;58.06;100943.81;5007319;28;46134;-83
2021/07/27 07:44:25;;;;;;;;;12.75;12.75;;;;;21.61;57.74;100939.47;4999832;28;45410;-83
2021/07/27 07:46:51;;;;;;;;;14.50;13.50;;;;;21.65;56.77;100939.47;4994674;28;45447;-83
2021/07/27 07:49:17;;;;;;;;;13.25;12.25;;;;;21.61;57.40;100936.81;4998432;28;45440;-82
2021/07/27 07:51:50;;;;;;;;;15.25;12.25;;;;;21.58;57.48;100939.44;4998870;28;45446;-83
2021/07/27 07:54:16;;;;;;;;;12.75;12.25;;;;;21.53;57.10;100942.09;4998324;28;45285;-83
2021/07/27 07:56:42;;;;;;;;;15.25;14.00;;;;;21.54;57.22;100949.13;4998150;28;45218;-82
2021/07/27 07:59:08;;;;;;;;;17.25;12.75;;;;;21.53;56.83;100960.53;4997909;28;45506;-84
2021/07/27 08:01:33;;;;;;;;;13.25;13.25;;;;;21.48;57.14;100947.34;4997708;28;45828;-80
2021/07/27 08:03:59;;;;;;;;;13.00;13.00;;;;;21.45;57.35;100959.59;4997624;28;45345;-83
2021/07/27 08:06:25;;;;;;;;;15.50;14.00;;;;;21.44;57.53;100952.56;4998124;28;45709;-83
2021/07/27 08:08:51;;;;;;;;;14.50;12.50;;;;;21.40;57.03;100956.09;5015861;28;45363;-85
2021/07/27 08:11:17;;;;;;;;;16.75;12.25;;;;;21.38;56.99;100955.22;5017608;28;46094;-86
2021/07/27 08:13:42;;;;;;;;;14.00;12.50;;;;;21.37;56.92;100956.06;5017527;28;45471;-82
2021/07/27 08:16:11;;;;;;;;;18.50;16.00;;;;;21.38;57.36;100952.56;5007853;28;45353;-83
2021/07/27 08:18:38;;;;;;;;;16.75;15.25;;;;;21.38;57.50;100958.72;4999062;28;45186;-80
2021/07/27 08:21:03;;;;;;;;;14.75;14.50;;;;;21.37;57.16;100963.97;4998270;28;45865;-84
2021/07/27 08:23:31;;;;;;;;;15.50;14.50;;;;;21.33;57.59;100958.69;4998835;28;45429;-89
2021/07/27 08:25:59;;;;;;;;;13.00;12.25;;;;;21.31;57.58;100962.22;5001140;28;45366;-83
2021/07/27 08:28:25;;;;;;;;;13.25;13.25;;;;;21.28;57.27;100965.72;5014553;28;45375;-83
2021/07/27 08:30:51;;;;;;;;;19.75;14.75;;;;;21.25;57.40;100960.44;5015467;28;46920;-83
2021/07/27 08:33:16;;;;;;;;;14.50;11.50;;;;;21.25;57.48;100970.09;5017315;28;45446;-83
2021/07/27 08:35:42;;;;;;;;;18.25;12.00;;;;;21.28;57.26;100967.47;5017463;28;45277;-83
2021/07/27 08:38:08;;;;;;;;;14.75;11.25;;;;;21.25;57.79;100965.72;5016906;28;45526;-83
2021/07/27 08:40:39;;;;;;;;;11.75;10.50;;;;;21.23;58.15;100964.81;5017097;28;45494;-83
2021/07/27 08:43:07;;;;;;;;;16.75;13.25;;;;;21.20;58.39;100946.41;5017183;28;45755;-83
2021/07/27 08:45:33;;;;;;;;;14.25;14.25;;;;;21.21;58.47;100937.63;5017548;28;45173;-83
2021/07/27 08:47:59;;;;;;;;;15.75;12.25;;;;;21.20;58.02;100938.50;5017412;28;45354;-82
2021/07/27 08:50:28;;;;;;;;;15.00;12.75;;;;;21.22;58.53;100942.00;5017086;28;46170;-83
2021/07/27 08:52:54;;;;;;;;;16.00;12.50;;;;;21.23;58.33;100938.47;5016884;28;45461;-82
2021/07/27 08:55:20;;;;;;;;;13.75;13.75;;;;;21.22;58.81;100936.72;5017089;28;45339;-82
2021/07/27 08:58:06;;;;;;;;;14.75;14.75;;;;;21.29;58.97;100929.72;5017104;28;45530;-82
2021/07/27 09:00:32;;;;;;;;;20.25;17.75;;;;;21.34;58.85;100946.44;5012078;28;45465;-81
2021/07/27 09:03:21;;;;;;;;;17.25;14.25;;;;;21.37;58.68;100942.91;5009809;28;45533;-85
2021/07/27 09:05:51;;;;;;;;;14.25;13.00;;;;;21.43;58.80;100954.34;5009647;28;45331;-85
2021/07/27 09:08:16;;;;;;;;;18.25;15.50;;;;;21.54;59.27;100957.00;4998519;28;45244;-84
2021/07/27 09:10:43;;;;;;;;;18.75;16.25;;;;;21.63;58.63;100956.16;4997104;28;46027;-85
2021/07/27 09:13:11;;;;;;;;;14.25;12.00;;;;;21.69;57.85;100956.19;4997556;28;45387;-84
2021/07/27 09:15:38;;;;;;;;;14.75;12.75;;;;;21.77;58.19;100961.44;5000110;28;45373;-84
2021/07/27 09:18:09;;;;;;;;;15.75;13.50;;;;;21.80;57.80;100954.44;4995879;28;45385;-85
2021/07/27 09:20:57;;;;;;;;;15.50;13.25;;;;;21.80;57.94;100954.44;4997635;28;46559;-83
2021/07/27 09:23:28;;;;;;;;;15.50;13.75;;;;;21.85;58.27;100961.44;4995420;28;45717;-83
2021/07/27 09:25:59;;;;;;;;;17.00;13.50;;;;;21.88;58.30;100967.59;4995744;28;45420;-85
2021/07/27 09:28:26;;;;;;;;;15.75;12.50;;;;;21.90;58.22;100973.75;4997399;28;45384;-85
2021/07/27 09:31:02;;;;;;;;;14.25;13.75;;;;;21.88;57.82;100959.69;4996422;28;45337;-84
2021/07/27 09:33:29;;;;;;;;;18.25;14.50;;;;;21.89;57.93;100957.94;5001777;28;45868;-86
2021/07/27 09:35:55;;;;;;;;;14.00;11.00;;;;;21.92;58.49;100966.72;5004933;28;45415;-86
2021/07/27 09:38:21;;;;;;;;;14.00;13.75;;;;;21.90;58.68;100957.94;4999679;28;45463;-86
2021/07/27 09:40:56;;;;;;;;;17.75;15.25;;;;;21.97;58.64;100955.31;5001570;28;46567;-85
2021/07/27 09:43:25;;;;;;;;;17.00;13.25;;;;;22.03;58.43;100963.22;5002527;28;45901;-85
2021/07/27 09:45:55;;;;;;;;;13.50;13.50;;;;;22.03;58.46;100958.81;5000404;28;45289;-86
2021/07/27 09:48:22;;;;;;;;;11.75;11.50;;;;;22.06;58.13;100964.09;4996747;28;45377;-85
2021/07/27 09:50:52;;;;;;;;;11.50;11.50;;;;;22.00;57.91;100960.56;5009083;28;46013;-85
2021/07/27 09:53:19;;;;;;;;;17.50;12.00;;;;;21.93;58.09;100964.97;4999203;28;45313;-84
2021/07/27 09:55:45;;;;;;;;;11.75;10.75;;;;;21.84;58.17;100960.59;5003050;28;45406;-84
2021/07/27 09:58:12;;;;;;;;;13.50;11.75;;;;;21.78;58.31;100964.09;5007685;28;45388;-85
2021/07/27 10:00:51;;;;;;;;;13.00;10.50;;;;;21.77;58.61;100959.69;5001062;28;45388;-84
2021/07/27 10:03:23;;;;;;;;;13.75;12.50;;;;;21.76;58.71;100976.38;5012477;28;45257;-85
2021/07/27 10:05:54;;;;;;;;;10.75;10.75;;;;;21.70;59.37;100975.50;5011090;28;45514;-84
2021/07/27 10:08:52;;;;;;;;;13.25;13.00;;;;;21.71;59.56;100977.25;5013177;28;45550;-82
2021/07/27 10:11:18;;;;;;;;;15.50;14.00;;;;;21.75;59.22;100977.25;5014504;28;45454;-82
2021/07/27 10:13:48;;;;;;;;;20.25;16.00;;;;;21.75;59.49;100982.53;5014581;28;45293;-84
2021/07/27 10:16:25;;;;;;;;;38.00;33.25;;;;;21.73;59.42;100979.00;5006281;28;45439;-85
2021/07/27 10:18:52;;;;;;;;;22.25;19.50;;;;;21.71;59.86;100986.03;5009657;28;45375;-81
2021/07/27 10:21:28;;;;;;;;;12.00;10.00;;;;;21.70;59.80;100988.66;4998262;28;46242;-81
2021/07/27 10:23:57;;;;;;;;;18.50;17.50;;;;;21.65;60.27;100984.25;5006110;28;45744;-82
2021/07/27 10:26:32;;;;;;;;;10.50;10.50;;;;;21.61;60.04;100979.88;4993886;28;45780;-83
2021/07/27 10:28:59;;;;;;;;;13.50;10.75;;;;;21.59;60.08;100983.41;4994405;28;45375;-82
2021/07/27 10:31:33;;;;;;;;;14.50;10.00;;;;;21.55;60.03;100981.59;4995478;28;45768;-83
2021/07/27 10:34:00;;;;;;;;;12.50;11.75;;;;;21.51;60.19;100975.44;5000478;28;45817;-82
2021/07/27 10:36:34;;;;;;;;;11.25;10.00;;;;;21.47;59.97;100978.94;5015249;28;45846;-82
2021/07/27 10:39:06;;;;;;;;;10.25;10.25;;;;;21.41;60.51;100985.06;5014392;28;45417;-81
2021/07/27 10:41:50;;;;;;;;;9.00;9.00;;;;;21.37;59.95;100978.03;5006713;28;47731;-80
2021/07/27 10:44:16;;;;;;;;;9.00;9.00;;;;;21.40;60.57;100971.91;5004732;28;45694;-81
2021/07/27 10:46:50;;;;;;;;;13.00;10.25;;;;;21.40;60.42;100975.41;5005695;28;45462;-82
2021/07/27 10:49:24;;;;;;;;;10.50;10.50;;;;;21.49;60.64;100979.81;5019477;28;45621;-82
2021/07/27 10:51:53;;;;;;;;;14.25;11.50;;;;;21.57;61.35;100979.84;5004373;28;45920;-82
2021/07/27 10:54:27;;;;;;;;;14.50;12.25;;;;;21.64;60.80;100976.38;5015670;28;45730;-83
2021/07/27 10:57:00;;;;;;;;;13.00;13.00;;;;;21.75;61.18;100963.22;5014548;28;45691;-82
2021/07/27 10:59:27;;;;;;;;;9.50;9.50;;;;;21.83;61.03;100958.81;5009721;28;45471;-80
2021/07/27 11:01:54;;;;;;;;;15.50;13.50;;;;;21.88;60.77;100951.78;5012691;28;46356;-81
2021/07/27 11:04:29;;;;;;;;;11.50;10.25;;;;;21.92;60.75;100953.56;5012111;28;45978;-82
2021/07/27 11:07:08;;;;;;;;;13.75;10.25;;;;;21.95;59.92;100953.56;5015553;28;45741;-81
2021/07/27 11:09:44;;;;;;;;;13.00;11.50;;;;;21.99;60.17;100948.25;5016255;28;45321;-80
2021/07/27 11:12:10;;;;;;;;;15.00;14.00;;;;;22.00;60.57;100940.38;5010836;28;45723;-81
2021/07/27 11:14:36;;;;;;;;;14.00;12.25;;;;;21.98;60.58;100946.50;5014872;28;45194;-81
2021/07/27 11:17:02;;;;;;;;;11.00;11.00;;;;;21.89;60.73;100950.91;5015053;28;45229;-81
2021/07/27 11:19:31;;;;;;;;;14.75;10.25;;;;;21.84;61.15;100943.88;5014058;28;45534;-81
2021/07/27 11:21:59;;;;;;;;;16.25;12.50;;;;;21.74;61.24;100941.25;5018380;28;46374;-81
2021/07/27 11:24:26;;;;;;;;;12.75;9.75;;;;;21.68;62.25;100940.34;5010280;28;45367;-81
2021/07/27 11:26:53;;;;;;;;;9.00;8.50;;;;;21.71;61.78;100943.00;5000000;28;45387;-81
2021/07/27 11:29:20;;;;;;;;;10.75;10.50;;;;;21.70;61.62;100954.41;5006188;28;45584;-79
2021/07/27 11:31:52;;;;;;;;;11.00;10.75;;;;;21.70;61.56;100954.41;5007245;28;46106;-80
2021/07/27 11:34:28;;;;;;;;;14.50;12.00;;;;;21.74;61.67;100964.09;5003415;28;45533;-81